sensor_id;sensor_type;location;lat;lon;timestamp;P1;durP1;ratioP1;P2;durP2;ratioP2
15677;SDS011;7939;50.814;6.368;2022-09-11T00:00:57;19.73;;;11.82;;
15677;SDS011;7939;50.814;6.368;2022-09-11T00:03:24;14.60;;;11.13;;
15677;SDS011;7939;50.814;6.368;2022-09-11T00:05:52;14.38;;;11.05;;
15677;SDS011;7939;50.814;6.368;2022-09-11T00:08:19;17.85;;;12.63;;
15677;SDS011;7939;50.814;6.368;2022-09-11T00:10:48;18.15;;;13.15;;
15677;SDS011;7939;50.814;6.368;2022-09-11T00:13:15;17.83;;;13.50;;
15677;SDS011;7939;50.814;6.368;2022-09-11T00:15:45;16.02;;;12.13;;
15677;SDS011;7939;50.814;6.368;2022-09-11T00:18:14;14.25;;;11.18;;
15677;SDS011;7939;50.814;6.368;2022-09-11T00:20:46;14.07;;;9.80;;
15677;SDS011;7939;50.814;6.368;2022-09-11T00:23:15;17.77;;;12.45;;
15677;SDS011;7939;50.814;6.368;2022-09-11T00:25:43;21.80;;;14.38;;
15677;SDS011;7939;50.814;6.368;2022-09-11T00:28:12;17.08;;;11.52;;
15677;SDS011;7939;50.814;6.368;2022-09-11T00:30:40;22.38;;;14.40;;
15677;SDS011;7939;50.814;6.368;2022-09-11T00:33:08;20.13;;;15.05;;
15677;SDS011;7939;50.814;6.368;2022-09-11T00:35:35;25.65;;;16.30;;
15677;SDS011;7939;50.814;6.368;2022-09-11T00:38:01;24.10;;;16.77;;
15677;SDS011;7939;50.814;6.368;2022-09-11T00:40:28;21.67;;;15.65;;
15677;SDS011;7939;50.814;6.368;2022-09-11T00:42:54;24.80;;;17.38;;
15677;SDS011;7939;50.814;6.368;2022-09-11T00:45:23;24.45;;;16.65;;
15677;SDS011;7939;50.814;6.368;2022-09-11T00:47:54;28.85;;;19.55;;
15677;SDS011;7939;50.814;6.368;2022-09-11T00:50:26;27.02;;;17.50;;
15677;SDS011;7939;50.814;6.368;2022-09-11T00:52:57;31.30;;;19.65;;
15677;SDS011;7939;50.814;6.368;2022-09-11T00:55:29;30.08;;;18.90;;
15677;SDS011;7939;50.814;6.368;2022-09-11T00:58:00;30.27;;;19.58;;
15677;SDS011;7939;50.814;6.368;2022-09-11T01:00:31;27.30;;;19.38;;
15677;SDS011;7939;50.814;6.368;2022-09-11T01:02:58;27.75;;;19.88;;
15677;SDS011;7939;50.814;6.368;2022-09-11T01:05:25;25.95;;;17.00;;
15677;SDS011;7939;50.814;6.368;2022-09-11T01:07:56;28.40;;;17.67;;
15677;SDS011;7939;50.814;6.368;2022-09-11T01:10:31;29.20;;;19.95;;
15677;SDS011;7939;50.814;6.368;2022-09-11T01:13:05;23.23;;;17.17;;
15677;SDS011;7939;50.814;6.368;2022-09-11T01:15:40;26.40;;;17.63;;
15677;SDS011;7939;50.814;6.368;2022-09-11T01:18:13;27.73;;;19.13;;
15677;SDS011;7939;50.814;6.368;2022-09-11T01:20:51;27.98;;;16.38;;
15677;SDS011;7939;50.814;6.368;2022-09-11T01:23:46;26.40;;;17.17;;
15677;SDS011;7939;50.814;6.368;2022-09-11T01:26:37;25.75;;;19.33;;
15677;SDS011;7939;50.814;6.368;2022-09-11T01:29:16;28.35;;;18.60;;
15677;SDS011;7939;50.814;6.368;2022-09-11T01:31:49;27.02;;;18.05;;
15677;SDS011;7939;50.814;6.368;2022-09-11T01:34:23;26.73;;;17.50;;
15677;SDS011;7939;50.814;6.368;2022-09-11T01:36:57;24.20;;;15.25;;
15677;SDS011;7939;50.814;6.368;2022-09-11T01:39:29;23.08;;;15.35;;
15677;SDS011;7939;50.814;6.368;2022-09-11T01:42:01;21.63;;;16.33;;
15677;SDS011;7939;50.814;6.368;2022-09-11T01:44:33;26.98;;;18.27;;
15677;SDS011;7939;50.814;6.368;2022-09-11T01:47:03;25.95;;;17.20;;
15677;SDS011;7939;50.814;6.368;2022-09-11T01:49:35;27.38;;;17.65;;
15677;SDS011;7939;50.814;6.368;2022-09-11T01:52:05;24.73;;;17.67;;
15677;SDS011;7939;50.814;6.368;2022-09-11T01:54:36;21.38;;;14.65;;
15677;SDS011;7939;50.814;6.368;2022-09-11T01:57:07;25.50;;;16.17;;
15677;SDS011;7939;50.814;6.368;2022-09-11T01:59:41;24.50;;;16.58;;
15677;SDS011;7939;50.814;6.368;2022-09-11T02:02:12;24.98;;;16.58;;
15677;SDS011;7939;50.814;6.368;2022-09-11T02:04:42;26.67;;;16.98;;
15677;SDS011;7939;50.814;6.368;2022-09-11T02:07:12;27.63;;;17.75;;
15677;SDS011;7939;50.814;6.368;2022-09-11T02:09:44;23.20;;;15.90;;
15677;SDS011;7939;50.814;6.368;2022-09-11T02:12:16;20.58;;;14.98;;
15677;SDS011;7939;50.814;6.368;2022-09-11T02:14:51;25.15;;;15.55;;
15677;SDS011;7939;50.814;6.368;2022-09-11T02:17:21;19.90;;;14.05;;
15677;SDS011;7939;50.814;6.368;2022-09-11T02:19:51;24.80;;;17.02;;
15677;SDS011;7939;50.814;6.368;2022-09-11T02:22:19;26.20;;;15.98;;
15677;SDS011;7939;50.814;6.368;2022-09-11T02:24:46;21.50;;;13.40;;
15677;SDS011;7939;50.814;6.368;2022-09-11T02:27:13;21.80;;;15.23;;
15677;SDS011;7939;50.814;6.368;2022-09-11T02:29:44;24.42;;;15.38;;
15677;SDS011;7939;50.814;6.368;2022-09-11T02:32:13;23.80;;;16.00;;
15677;SDS011;7939;50.814;6.368;2022-09-11T02:34:40;31.08;;;17.65;;
15677;SDS011;7939;50.814;6.368;2022-09-11T02:37:12;19.17;;;13.05;;
15677;SDS011;7939;50.814;6.368;2022-09-11T02:42:55;21.83;;;14.38;;
15677;SDS011;7939;50.814;6.368;2022-09-11T02:45:37;26.05;;;16.98;;
15677;SDS011;7939;50.814;6.368;2022-09-11T02:48:19;24.13;;;15.48;;
15677;SDS011;7939;50.814;6.368;2022-09-11T02:50:57;23.60;;;15.73;;
15677;SDS011;7939;50.814;6.368;2022-09-11T02:53:30;26.17;;;16.08;;
15677;SDS011;7939;50.814;6.368;2022-09-11T02:56:07;27.27;;;16.65;;
15677;SDS011;7939;50.814;6.368;2022-09-11T02:58:42;26.48;;;16.90;;
15677;SDS011;7939;50.814;6.368;2022-09-11T03:01:14;23.58;;;16.95;;
15677;SDS011;7939;50.814;6.368;2022-09-11T03:03:44;25.30;;;16.80;;
15677;SDS011;7939;50.814;6.368;2022-09-11T03:06:13;25.50;;;16.63;;
15677;SDS011;7939;50.814;6.368;2022-09-11T03:08:42;24.38;;;16.58;;
15677;SDS011;7939;50.814;6.368;2022-09-11T03:11:08;32.53;;;18.80;;
15677;SDS011;7939;50.814;6.368;2022-09-11T03:13:35;28.58;;;20.10;;
15677;SDS011;7939;50.814;6.368;2022-09-11T03:16:03;24.45;;;16.98;;
15677;SDS011;7939;50.814;6.368;2022-09-11T03:18:29;27.65;;;17.45;;
15677;SDS011;7939;50.814;6.368;2022-09-11T03:20:58;28.98;;;19.13;;
15677;SDS011;7939;50.814;6.368;2022-09-11T03:23:25;31.20;;;20.65;;
15677;SDS011;7939;50.814;6.368;2022-09-11T03:25:52;32.30;;;18.77;;
15677;SDS011;7939;50.814;6.368;2022-09-11T03:28:19;32.90;;;20.90;;
15677;SDS011;7939;50.814;6.368;2022-09-11T03:30:47;32.22;;;19.92;;
15677;SDS011;7939;50.814;6.368;2022-09-11T03:33:14;32.55;;;19.75;;
15677;SDS011;7939;50.814;6.368;2022-09-11T03:35:41;30.48;;;19.05;;
15677;SDS011;7939;50.814;6.368;2022-09-11T03:38:09;34.13;;;21.35;;
15677;SDS011;7939;50.814;6.368;2022-09-11T03:40:37;36.28;;;20.48;;
15677;SDS011;7939;50.814;6.368;2022-09-11T03:43:03;30.88;;;17.30;;
15677;SDS011;7939;50.814;6.368;2022-09-11T03:45:30;30.85;;;19.63;;
15677;SDS011;7939;50.814;6.368;2022-09-11T03:47:57;41.00;;;22.13;;
15677;SDS011;7939;50.814;6.368;2022-09-11T03:50:23;39.55;;;21.42;;
15677;SDS011;7939;50.814;6.368;2022-09-11T03:52:50;39.67;;;22.15;;
15677;SDS011;7939;50.814;6.368;2022-09-11T03:55:18;35.40;;;21.92;;
15677;SDS011;7939;50.814;6.368;2022-09-11T03:57:47;33.20;;;21.20;;
15677;SDS011;7939;50.814;6.368;2022-09-11T04:00:14;41.35;;;25.15;;
15677;SDS011;7939;50.814;6.368;2022-09-11T04:02:40;38.78;;;22.23;;
15677;SDS011;7939;50.814;6.368;2022-09-11T04:05:07;31.52;;;19.70;;
15677;SDS011;7939;50.814;6.368;2022-09-11T04:07:34;41.65;;;22.67;;
15677;SDS011;7939;50.814;6.368;2022-09-11T04:10:02;41.20;;;21.50;;
15677;SDS011;7939;50.814;6.368;2022-09-11T04:12:30;39.40;;;22.67;;
15677;SDS011;7939;50.814;6.368;2022-09-11T04:14:57;40.95;;;23.05;;
15677;SDS011;7939;50.814;6.368;2022-09-11T04:17:24;40.45;;;23.40;;
15677;SDS011;7939;50.814;6.368;2022-09-11T04:19:50;37.08;;;22.92;;
15677;SDS011;7939;50.814;6.368;2022-09-11T04:22:17;38.53;;;23.27;;
15677;SDS011;7939;50.814;6.368;2022-09-11T04:24:44;44.08;;;23.33;;
15677;SDS011;7939;50.814;6.368;2022-09-11T04:27:11;34.95;;;19.88;;
15677;SDS011;7939;50.814;6.368;2022-09-11T04:29:39;40.15;;;22.77;;
15677;SDS011;7939;50.814;6.368;2022-09-11T04:32:07;43.45;;;23.95;;
15677;SDS011;7939;50.814;6.368;2022-09-11T04:34:35;30.40;;;18.27;;
15677;SDS011;7939;50.814;6.368;2022-09-11T04:37:02;36.58;;;22.30;;
15677;SDS011;7939;50.814;6.368;2022-09-11T04:39:30;37.95;;;22.08;;
15677;SDS011;7939;50.814;6.368;2022-09-11T04:41:58;38.72;;;22.45;;
15677;SDS011;7939;50.814;6.368;2022-09-11T04:44:26;37.47;;;21.58;;
15677;SDS011;7939;50.814;6.368;2022-09-11T04:46:54;36.00;;;21.42;;
15677;SDS011;7939;50.814;6.368;2022-09-11T04:49:21;30.55;;;17.75;;
15677;SDS011;7939;50.814;6.368;2022-09-11T04:51:48;35.05;;;20.67;;
15677;SDS011;7939;50.814;6.368;2022-09-11T04:54:15;35.78;;;20.38;;
15677;SDS011;7939;50.814;6.368;2022-09-11T04:56:45;25.75;;;17.70;;
15677;SDS011;7939;50.814;6.368;2022-09-11T04:59:13;34.22;;;20.23;;
15677;SDS011;7939;50.814;6.368;2022-09-11T05:01:42;34.25;;;20.40;;
15677;SDS011;7939;50.814;6.368;2022-09-11T05:04:12;32.85;;;18.63;;
15677;SDS011;7939;50.814;6.368;2022-09-11T05:06:39;34.72;;;19.63;;
15677;SDS011;7939;50.814;6.368;2022-09-11T05:09:07;35.97;;;20.77;;
15677;SDS011;7939;50.814;6.368;2022-09-11T05:11:34;34.17;;;20.10;;
15677;SDS011;7939;50.814;6.368;2022-09-11T05:14:02;28.35;;;17.85;;
15677;SDS011;7939;50.814;6.368;2022-09-11T05:16:29;33.63;;;20.15;;
15677;SDS011;7939;50.814;6.368;2022-09-11T05:18:58;36.33;;;19.88;;
15677;SDS011;7939;50.814;6.368;2022-09-11T05:21:27;32.17;;;19.25;;
15677;SDS011;7939;50.814;6.368;2022-09-11T05:23:54;35.42;;;21.70;;
15677;SDS011;7939;50.814;6.368;2022-09-11T05:26:22;32.22;;;20.38;;
15677;SDS011;7939;50.814;6.368;2022-09-11T05:28:52;28.48;;;17.00;;
15677;SDS011;7939;50.814;6.368;2022-09-11T05:31:20;33.30;;;19.58;;
15677;SDS011;7939;50.814;6.368;2022-09-11T05:33:47;36.75;;;22.10;;
15677;SDS011;7939;50.814;6.368;2022-09-11T05:36:14;32.15;;;18.58;;
15677;SDS011;7939;50.814;6.368;2022-09-11T05:38:43;34.20;;;20.52;;
15677;SDS011;7939;50.814;6.368;2022-09-11T05:41:10;28.42;;;17.75;;
15677;SDS011;7939;50.814;6.368;2022-09-11T05:43:39;30.40;;;18.63;;
15677;SDS011;7939;50.814;6.368;2022-09-11T05:46:07;33.92;;;21.15;;
15677;SDS011;7939;50.814;6.368;2022-09-11T05:48:37;36.88;;;21.98;;
15677;SDS011;7939;50.814;6.368;2022-09-11T05:51:05;36.58;;;21.10;;
15677;SDS011;7939;50.814;6.368;2022-09-11T05:53:33;37.63;;;21.60;;
15677;SDS011;7939;50.814;6.368;2022-09-11T05:56:05;36.90;;;21.83;;
15677;SDS011;7939;50.814;6.368;2022-09-11T05:58:33;35.75;;;20.75;;
15677;SDS011;7939;50.814;6.368;2022-09-11T06:01:04;36.78;;;20.55;;
15677;SDS011;7939;50.814;6.368;2022-09-11T06:03:32;35.38;;;20.70;;
15677;SDS011;7939;50.814;6.368;2022-09-11T06:06:00;35.58;;;19.95;;
15677;SDS011;7939;50.814;6.368;2022-09-11T06:08:27;36.17;;;20.80;;
15677;SDS011;7939;50.814;6.368;2022-09-11T06:10:55;34.50;;;18.90;;
15677;SDS011;7939;50.814;6.368;2022-09-11T06:13:24;34.30;;;19.90;;
15677;SDS011;7939;50.814;6.368;2022-09-11T06:15:51;35.63;;;20.52;;
15677;SDS011;7939;50.814;6.368;2022-09-11T06:18:17;41.10;;;22.60;;
15677;SDS011;7939;50.814;6.368;2022-09-11T06:20:53;30.45;;;19.27;;
15677;SDS011;7939;50.814;6.368;2022-09-11T06:23:20;30.27;;;18.65;;
15677;SDS011;7939;50.814;6.368;2022-09-11T06:25:47;29.95;;;18.70;;
15677;SDS011;7939;50.814;6.368;2022-09-11T06:28:14;40.33;;;21.35;;
15677;SDS011;7939;50.814;6.368;2022-09-11T06:30:42;34.22;;;19.55;;
15677;SDS011;7939;50.814;6.368;2022-09-11T06:33:08;29.42;;;17.00;;
15677;SDS011;7939;50.814;6.368;2022-09-11T06:35:35;32.90;;;19.75;;
15677;SDS011;7939;50.814;6.368;2022-09-11T06:38:02;31.60;;;18.13;;
15677;SDS011;7939;50.814;6.368;2022-09-11T06:40:29;28.13;;;18.65;;
15677;SDS011;7939;50.814;6.368;2022-09-11T06:42:56;32.53;;;19.00;;
15677;SDS011;7939;50.814;6.368;2022-09-11T06:45:22;31.67;;;17.33;;
15677;SDS011;7939;50.814;6.368;2022-09-11T06:47:51;34.13;;;18.75;;
15677;SDS011;7939;50.814;6.368;2022-09-11T06:50:18;26.27;;;14.88;;
15677;SDS011;7939;50.814;6.368;2022-09-11T06:52:44;31.45;;;18.27;;
15677;SDS011;7939;50.814;6.368;2022-09-11T06:55:11;32.35;;;17.38;;
15677;SDS011;7939;50.814;6.368;2022-09-11T06:57:38;28.23;;;16.90;;
15677;SDS011;7939;50.814;6.368;2022-09-11T07:00:06;29.50;;;18.13;;
15677;SDS011;7939;50.814;6.368;2022-09-11T07:02:34;29.27;;;16.45;;
15677;SDS011;7939;50.814;6.368;2022-09-11T07:05:02;27.65;;;16.08;;
15677;SDS011;7939;50.814;6.368;2022-09-11T07:07:29;29.55;;;18.48;;
15677;SDS011;7939;50.814;6.368;2022-09-11T07:09:58;30.23;;;16.17;;
15677;SDS011;7939;50.814;6.368;2022-09-11T07:12:28;23.80;;;13.90;;
15677;SDS011;7939;50.814;6.368;2022-09-11T07:14:56;26.75;;;15.50;;
15677;SDS011;7939;50.814;6.368;2022-09-11T07:17:23;27.30;;;16.33;;
15677;SDS011;7939;50.814;6.368;2022-09-11T07:19:50;27.15;;;14.30;;
15677;SDS011;7939;50.814;6.368;2022-09-11T07:22:17;28.70;;;15.35;;
15677;SDS011;7939;50.814;6.368;2022-09-11T07:24:46;21.52;;;13.25;;
15677;SDS011;7939;50.814;6.368;2022-09-11T07:27:13;26.27;;;15.38;;
15677;SDS011;7939;50.814;6.368;2022-09-11T07:29:39;22.55;;;13.77;;
15677;SDS011;7939;50.814;6.368;2022-09-11T07:32:06;21.55;;;13.52;;
15677;SDS011;7939;50.814;6.368;2022-09-11T07:34:33;19.75;;;12.07;;
15677;SDS011;7939;50.814;6.368;2022-09-11T07:36:59;23.83;;;14.43;;
15677;SDS011;7939;50.814;6.368;2022-09-11T07:39:27;20.75;;;13.00;;
15677;SDS011;7939;50.814;6.368;2022-09-11T07:41:54;22.42;;;12.88;;
15677;SDS011;7939;50.814;6.368;2022-09-11T07:44:20;22.70;;;13.02;;
15677;SDS011;7939;50.814;6.368;2022-09-11T07:46:47;17.10;;;11.50;;
15677;SDS011;7939;50.814;6.368;2022-09-11T07:49:15;20.42;;;12.52;;
15677;SDS011;7939;50.814;6.368;2022-09-11T07:51:42;23.38;;;13.02;;
15677;SDS011;7939;50.814;6.368;2022-09-11T07:54:09;24.63;;;14.15;;
15677;SDS011;7939;50.814;6.368;2022-09-11T07:56:37;20.50;;;12.20;;
15677;SDS011;7939;50.814;6.368;2022-09-11T07:59:05;22.17;;;12.35;;
15677;SDS011;7939;50.814;6.368;2022-09-11T08:01:33;21.27;;;12.15;;
15677;SDS011;7939;50.814;6.368;2022-09-11T08:04:00;21.08;;;11.98;;
15677;SDS011;7939;50.814;6.368;2022-09-11T08:06:29;20.38;;;12.48;;
15677;SDS011;7939;50.814;6.368;2022-09-11T08:08:57;22.13;;;12.88;;
15677;SDS011;7939;50.814;6.368;2022-09-11T08:11:26;18.38;;;11.38;;
15677;SDS011;7939;50.814;6.368;2022-09-11T08:13:55;19.10;;;10.73;;
15677;SDS011;7939;50.814;6.368;2022-09-11T08:16:22;18.17;;;10.35;;
15677;SDS011;7939;50.814;6.368;2022-09-11T08:18:50;20.20;;;11.65;;
15677;SDS011;7939;50.814;6.368;2022-09-11T08:21:18;19.60;;;11.10;;
15677;SDS011;7939;50.814;6.368;2022-09-11T08:23:46;19.48;;;11.10;;
15677;SDS011;7939;50.814;6.368;2022-09-11T08:26:14;18.50;;;11.05;;
15677;SDS011;7939;50.814;6.368;2022-09-11T08:28:41;17.80;;;11.40;;
15677;SDS011;7939;50.814;6.368;2022-09-11T08:31:11;22.75;;;12.45;;
15677;SDS011;7939;50.814;6.368;2022-09-11T08:33:38;20.00;;;11.27;;
15677;SDS011;7939;50.814;6.368;2022-09-11T08:36:05;17.70;;;11.60;;
15677;SDS011;7939;50.814;6.368;2022-09-11T08:38:33;19.58;;;12.18;;
15677;SDS011;7939;50.814;6.368;2022-09-11T08:41:08;16.80;;;10.73;;
15677;SDS011;7939;50.814;6.368;2022-09-11T08:43:43;21.83;;;11.65;;
15677;SDS011;7939;50.814;6.368;2022-09-11T08:46:16;20.13;;;11.35;;
15677;SDS011;7939;50.814;6.368;2022-09-11T08:48:48;18.88;;;12.35;;
15677;SDS011;7939;50.814;6.368;2022-09-11T08:51:22;20.33;;;11.65;;
15677;SDS011;7939;50.814;6.368;2022-09-11T08:53:50;20.00;;;11.20;;
15677;SDS011;7939;50.814;6.368;2022-09-11T08:56:19;17.33;;;11.85;;
15677;SDS011;7939;50.814;6.368;2022-09-11T08:58:51;18.63;;;11.02;;
15677;SDS011;7939;50.814;6.368;2022-09-11T09:01:37;17.83;;;10.65;;
15677;SDS011;7939;50.814;6.368;2022-09-11T09:04:20;16.45;;;10.45;;
15677;SDS011;7939;50.814;6.368;2022-09-11T09:07:02;18.08;;;10.50;;
15677;SDS011;7939;50.814;6.368;2022-09-11T09:09:37;18.95;;;11.60;;
15677;SDS011;7939;50.814;6.368;2022-09-11T09:12:13;21.45;;;12.65;;
15677;SDS011;7939;50.814;6.368;2022-09-11T09:15:02;18.35;;;12.63;;
15677;SDS011;7939;50.814;6.368;2022-09-11T09:17:39;18.98;;;11.25;;
15677;SDS011;7939;50.814;6.368;2022-09-11T09:20:14;21.15;;;12.75;;
15677;SDS011;7939;50.814;6.368;2022-09-11T09:22:46;17.20;;;10.35;;
15677;SDS011;7939;50.814;6.368;2022-09-11T09:25:17;17.05;;;9.60;;
15677;SDS011;7939;50.814;6.368;2022-09-11T09:27:47;13.90;;;9.55;;
15677;SDS011;7939;50.814;6.368;2022-09-11T09:30:15;12.55;;;8.90;;
15677;SDS011;7939;50.814;6.368;2022-09-11T09:32:47;11.73;;;7.85;;
15677;SDS011;7939;50.814;6.368;2022-09-11T09:35:19;14.18;;;9.13;;
15677;SDS011;7939;50.814;6.368;2022-09-11T09:37:50;14.77;;;9.18;;
15677;SDS011;7939;50.814;6.368;2022-09-11T09:40:18;12.95;;;8.98;;
15677;SDS011;7939;50.814;6.368;2022-09-11T09:42:54;12.93;;;8.80;;
15677;SDS011;7939;50.814;6.368;2022-09-11T09:45:44;11.27;;;7.85;;
15677;SDS011;7939;50.814;6.368;2022-09-11T09:48:23;10.27;;;7.68;;
15677;SDS011;7939;50.814;6.368;2022-09-11T09:50:50;8.68;;;6.75;;
15677;SDS011;7939;50.814;6.368;2022-09-11T09:53:19;8.38;;;5.63;;
15677;SDS011;7939;50.814;6.368;2022-09-11T09:55:54;9.00;;;6.07;;
15677;SDS011;7939;50.814;6.368;2022-09-11T09:58:23;9.93;;;6.80;;
15677;SDS011;7939;50.814;6.368;2022-09-11T10:00:55;9.45;;;5.85;;
15677;SDS011;7939;50.814;6.368;2022-09-11T10:03:24;8.85;;;5.63;;
15677;SDS011;7939;50.814;6.368;2022-09-11T10:05:51;10.38;;;6.55;;
15677;SDS011;7939;50.814;6.368;2022-09-11T10:08:29;10.82;;;6.63;;
15677;SDS011;7939;50.814;6.368;2022-09-11T10:10:58;10.30;;;7.07;;
15677;SDS011;7939;50.814;6.368;2022-09-11T10:13:26;11.27;;;6.72;;
15677;SDS011;7939;50.814;6.368;2022-09-11T10:15:56;8.57;;;5.65;;
15677;SDS011;7939;50.814;6.368;2022-09-11T10:18:37;9.55;;;5.88;;
15677;SDS011;7939;50.814;6.368;2022-09-11T10:21:14;8.75;;;6.07;;
15677;SDS011;7939;50.814;6.368;2022-09-11T10:23:49;13.15;;;7.80;;
15677;SDS011;7939;50.814;6.368;2022-09-11T10:26:19;13.75;;;8.57;;
15677;SDS011;7939;50.814;6.368;2022-09-11T10:28:51;12.05;;;7.90;;
15677;SDS011;7939;50.814;6.368;2022-09-11T10:31:19;15.52;;;10.10;;
15677;SDS011;7939;50.814;6.368;2022-09-11T10:33:49;14.98;;;9.13;;
15677;SDS011;7939;50.814;6.368;2022-09-11T10:36:21;13.05;;;9.88;;
15677;SDS011;7939;50.814;6.368;2022-09-11T10:38:49;17.25;;;10.77;;
15677;SDS011;7939;50.814;6.368;2022-09-11T10:41:18;15.70;;;11.13;;
15677;SDS011;7939;50.814;6.368;2022-09-11T10:43:50;14.70;;;10.15;;
15677;SDS011;7939;50.814;6.368;2022-09-11T10:46:24;14.35;;;9.43;;
15677;SDS011;7939;50.814;6.368;2022-09-11T10:48:54;14.10;;;9.35;;
15677;SDS011;7939;50.814;6.368;2022-09-11T10:51:23;16.10;;;11.05;;
15677;SDS011;7939;50.814;6.368;2022-09-11T10:53:55;14.35;;;9.07;;
15677;SDS011;7939;50.814;6.368;2022-09-11T10:56:28;15.93;;;9.90;;
15677;SDS011;7939;50.814;6.368;2022-09-11T10:58:57;14.02;;;9.57;;
15677;SDS011;7939;50.814;6.368;2022-09-11T11:01:29;16.58;;;10.88;;
15677;SDS011;7939;50.814;6.368;2022-09-11T11:03:58;15.23;;;10.55;;
15677;SDS011;7939;50.814;6.368;2022-09-11T11:06:31;19.15;;;11.63;;
15677;SDS011;7939;50.814;6.368;2022-09-11T11:12:00;10.30;;;8.13;;
15677;SDS011;7939;50.814;6.368;2022-09-11T11:17:47;12.65;;;8.07;;
15677;SDS011;7939;50.814;6.368;2022-09-11T11:20:27;11.23;;;7.40;;
15677;SDS011;7939;50.814;6.368;2022-09-11T11:23:11;11.05;;;7.10;;
15677;SDS011;7939;50.814;6.368;2022-09-11T11:25:53;12.10;;;8.60;;
15677;SDS011;7939;50.814;6.368;2022-09-11T11:28:36;11.95;;;9.07;;
15677;SDS011;7939;50.814;6.368;2022-09-11T11:31:19;13.32;;;9.82;;
15677;SDS011;7939;50.814;6.368;2022-09-11T11:34:01;12.63;;;7.68;;
15677;SDS011;7939;50.814;6.368;2022-09-11T11:36:43;15.73;;;10.10;;
15677;SDS011;7939;50.814;6.368;2022-09-11T11:39:17;15.35;;;10.82;;
15677;SDS011;7939;50.814;6.368;2022-09-11T11:41:54;14.73;;;9.13;;
15677;SDS011;7939;50.814;6.368;2022-09-11T11:44:30;14.43;;;8.45;;
15677;SDS011;7939;50.814;6.368;2022-09-11T11:47:03;11.15;;;7.47;;
15677;SDS011;7939;50.814;6.368;2022-09-11T11:49:38;12.88;;;7.82;;
15677;SDS011;7939;50.814;6.368;2022-09-11T11:52:17;14.93;;;10.00;;
15677;SDS011;7939;50.814;6.368;2022-09-11T11:54:52;11.75;;;8.15;;
15677;SDS011;7939;50.814;6.368;2022-09-11T11:57:27;12.65;;;9.00;;
15677;SDS011;7939;50.814;6.368;2022-09-11T12:00:00;10.48;;;7.40;;
15677;SDS011;7939;50.814;6.368;2022-09-11T12:02:32;12.73;;;8.18;;
15677;SDS011;7939;50.814;6.368;2022-09-11T12:05:06;12.25;;;8.25;;
15677;SDS011;7939;50.814;6.368;2022-09-11T12:07:38;10.85;;;8.18;;
15677;SDS011;7939;50.814;6.368;2022-09-11T12:10:06;11.15;;;7.85;;
15677;SDS011;7939;50.814;6.368;2022-09-11T12:12:46;15.73;;;9.15;;
15677;SDS011;7939;50.814;6.368;2022-09-11T12:15:16;14.70;;;8.30;;
15677;SDS011;7939;50.814;6.368;2022-09-11T12:17:46;15.00;;;9.27;;
15677;SDS011;7939;50.814;6.368;2022-09-11T12:20:30;14.32;;;8.30;;
15677;SDS011;7939;50.814;6.368;2022-09-11T12:23:03;17.63;;;9.98;;
15677;SDS011;7939;50.814;6.368;2022-09-11T12:25:48;15.02;;;9.20;;
15677;SDS011;7939;50.814;6.368;2022-09-11T12:28:28;12.15;;;7.57;;
15677;SDS011;7939;50.814;6.368;2022-09-11T12:30:56;10.32;;;7.03;;
15677;SDS011;7939;50.814;6.368;2022-09-11T12:36:20;12.07;;;8.27;;
15677;SDS011;7939;50.814;6.368;2022-09-11T12:38:55;14.57;;;7.80;;
15677;SDS011;7939;50.814;6.368;2022-09-11T12:41:25;11.45;;;6.53;;
15677;SDS011;7939;50.814;6.368;2022-09-11T12:43:54;12.55;;;8.10;;
15677;SDS011;7939;50.814;6.368;2022-09-11T12:49:41;10.05;;;8.05;;
15677;SDS011;7939;50.814;6.368;2022-09-11T12:52:30;15.23;;;8.65;;
15677;SDS011;7939;50.814;6.368;2022-09-11T12:55:19;12.45;;;8.85;;
15677;SDS011;7939;50.814;6.368;2022-09-11T12:57:55;9.25;;;6.85;;
15677;SDS011;7939;50.814;6.368;2022-09-11T13:00:28;10.05;;;7.65;;
15677;SDS011;7939;50.814;6.368;2022-09-11T13:02:59;9.45;;;7.47;;
15677;SDS011;7939;50.814;6.368;2022-09-11T13:05:27;11.13;;;8.10;;
15677;SDS011;7939;50.814;6.368;2022-09-11T13:07:59;8.60;;;7.03;;
15677;SDS011;7939;50.814;6.368;2022-09-11T13:10:32;10.23;;;6.88;;
15677;SDS011;7939;50.814;6.368;2022-09-11T13:13:01;9.55;;;6.97;;
15677;SDS011;7939;50.814;6.368;2022-09-11T13:15:33;8.90;;;6.60;;
15677;SDS011;7939;50.814;6.368;2022-09-11T13:18:14;8.32;;;6.47;;
15677;SDS011;7939;50.814;6.368;2022-09-11T13:20:54;7.60;;;6.13;;
15677;SDS011;7939;50.814;6.368;2022-09-11T13:23:22;6.05;;;5.32;;
15677;SDS011;7939;50.814;6.368;2022-09-11T13:25:52;9.00;;;6.05;;
15677;SDS011;7939;50.814;6.368;2022-09-11T13:28:20;8.27;;;6.13;;
15677;SDS011;7939;50.814;6.368;2022-09-11T13:30:50;6.00;;;5.30;;
15677;SDS011;7939;50.814;6.368;2022-09-11T13:33:21;9.55;;;5.60;;
15677;SDS011;7939;50.814;6.368;2022-09-11T13:35:52;10.07;;;5.10;;
15677;SDS011;7939;50.814;6.368;2022-09-11T13:38:21;7.90;;;5.30;;
15677;SDS011;7939;50.814;6.368;2022-09-11T13:40:54;8.95;;;5.38;;
15677;SDS011;7939;50.814;6.368;2022-09-11T13:43:23;9.55;;;6.32;;
15677;SDS011;7939;50.814;6.368;2022-09-11T13:48:53;8.75;;;6.40;;
15677;SDS011;7939;50.814;6.368;2022-09-11T13:51:23;7.25;;;5.72;;
15677;SDS011;7939;50.814;6.368;2022-09-11T13:54:05;6.35;;;4.70;;
15677;SDS011;7939;50.814;6.368;2022-09-11T13:56:42;5.18;;;4.68;;
15677;SDS011;7939;50.814;6.368;2022-09-11T14:02:07;8.48;;;4.80;;
15677;SDS011;7939;50.814;6.368;2022-09-11T14:05:09;5.88;;;4.63;;
15677;SDS011;7939;50.814;6.368;2022-09-11T14:07:40;6.43;;;5.72;;
15677;SDS011;7939;50.814;6.368;2022-09-11T14:10:20;5.30;;;4.65;;
15677;SDS011;7939;50.814;6.368;2022-09-11T14:12:52;7.28;;;4.00;;
15677;SDS011;7939;50.814;6.368;2022-09-11T14:15:28;7.93;;;5.28;;
15677;SDS011;7939;50.814;6.368;2022-09-11T14:18:02;7.75;;;4.60;;
15677;SDS011;7939;50.814;6.368;2022-09-11T14:20:31;6.20;;;4.15;;
15677;SDS011;7939;50.814;6.368;2022-09-11T14:23:00;8.40;;;4.68;;
15677;SDS011;7939;50.814;6.368;2022-09-11T14:25:30;5.10;;;4.25;;
15677;SDS011;7939;50.814;6.368;2022-09-11T14:27:59;8.63;;;4.30;;
15677;SDS011;7939;50.814;6.368;2022-09-11T14:30:27;5.40;;;4.68;;
15677;SDS011;7939;50.814;6.368;2022-09-11T14:33:12;6.20;;;4.70;;
15677;SDS011;7939;50.814;6.368;2022-09-11T14:35:41;4.72;;;3.60;;
15677;SDS011;7939;50.814;6.368;2022-09-11T14:38:10;5.53;;;4.63;;
15677;SDS011;7939;50.814;6.368;2022-09-11T14:40:40;8.30;;;4.82;;
15677;SDS011;7939;50.814;6.368;2022-09-11T14:43:15;6.63;;;4.43;;
15677;SDS011;7939;50.814;6.368;2022-09-11T14:45:45;5.45;;;4.03;;
15677;SDS011;7939;50.814;6.368;2022-09-11T14:48:15;5.72;;;4.43;;
15677;SDS011;7939;50.814;6.368;2022-09-11T14:50:43;4.63;;;3.70;;
15677;SDS011;7939;50.814;6.368;2022-09-11T14:53:11;5.97;;;3.90;;
15677;SDS011;7939;50.814;6.368;2022-09-11T14:55:43;5.15;;;3.40;;
15677;SDS011;7939;50.814;6.368;2022-09-11T14:58:10;6.50;;;3.97;;
15677;SDS011;7939;50.814;6.368;2022-09-11T15:00:38;7.22;;;3.50;;
15677;SDS011;7939;50.814;6.368;2022-09-11T15:03:06;7.70;;;3.67;;
15677;SDS011;7939;50.814;6.368;2022-09-11T15:05:33;6.20;;;3.20;;
15677;SDS011;7939;50.814;6.368;2022-09-11T15:08:00;3.33;;;2.85;;
15677;SDS011;7939;50.814;6.368;2022-09-11T15:10:27;4.70;;;3.42;;
15677;SDS011;7939;50.814;6.368;2022-09-11T15:12:55;6.55;;;3.40;;
15677;SDS011;7939;50.814;6.368;2022-09-11T15:15:22;3.78;;;3.15;;
15677;SDS011;7939;50.814;6.368;2022-09-11T15:17:50;4.65;;;3.00;;
15677;SDS011;7939;50.814;6.368;2022-09-11T15:20:17;3.53;;;3.20;;
15677;SDS011;7939;50.814;6.368;2022-09-11T15:22:44;4.22;;;2.97;;